createdAt,value
2018-07-05T00:00:02.116Z,80.20
2018-07-05T00:02:41.748Z,80.40
2018-07-05T00:05:21.317Z,80.60
2018-07-05T00:08:00.959Z,80.80
2018-07-05T00:10:40.595Z,81.00
2018-07-05T00:13:20.309Z,81.30
2018-07-05T00:15:59.834Z,81.50
2018-07-05T00:18:39.557Z,81.60
2018-07-05T00:21:19.168Z,81.70
2018-07-05T00:23:58.788Z,82.10
2018-07-05T00:26:38.463Z,82.10
2018-07-05T00:29:17.904Z,82.30
2018-07-05T00:31:57.609Z,82.40
2018-07-05T00:34:37.234Z,82.60
2018-07-05T00:37:16.797Z,82.70
2018-07-05T00:39:56.252Z,83.00
2018-07-05T00:42:35.732Z,83.10
2018-07-05T00:45:15.331Z,83.10
2018-07-05T00:47:54.899Z,83.40
2018-07-05T00:50:34.489Z,83.60
2018-07-05T00:53:13.965Z,83.70
2018-07-05T00:55:53.656Z,84.10
2018-07-05T00:58:33.264Z,84.20
2018-07-05T01:01:12.968Z,84.10
2018-07-05T01:03:52.361Z,84.10
2018-07-05T01:06:31.796Z,84.30
2018-07-05T01:09:11.416Z,84.20
2018-07-05T01:11:51.072Z,84.40
2018-07-05T01:14:30.749Z,84.60
2018-07-05T01:17:10.306Z,84.80
2018-07-05T01:19:49.898Z,84.80
2018-07-05T01:22:29.599Z,85.10
2018-07-05T01:25:09.281Z,85.20
2018-07-05T01:27:48.969Z,85.50
2018-07-05T01:30:28.664Z,85.70
2018-07-05T01:33:08.275Z,85.80
2018-07-05T01:35:47.922Z,86.10
2018-07-05T01:38:27.644Z,86.20
2018-07-05T01:41:07.311Z,86.20
2018-07-05T01:43:46.908Z,86.20
2018-07-05T01:46:26.421Z,86.20
2018-07-05T01:49:06.202Z,86.40
2018-07-05T01:51:45.885Z,86.40
2018-07-05T01:54:25.513Z,86.40
2018-07-05T01:57:05.292Z,86.50
2018-07-05T01:59:44.951Z,86.50
2018-07-05T02:02:24.538Z,86.50
2018-07-05T02:07:37.707Z,86.50
2018-07-05T02:10:17.380Z,86.60
2018-07-05T02:12:57.005Z,86.50
2018-07-05T02:15:36.613Z,86.50
2018-07-05T02:18:16.238Z,86.80
2018-07-05T02:20:55.848Z,86.70
2018-07-05T02:23:35.369Z,86.80
2018-07-05T02:26:15.088Z,86.70
2018-07-05T02:31:28.311Z,86.90
2018-07-05T02:34:10.465Z,87.00
2018-07-05T02:36:50.138Z,87.10
2018-07-05T02:40:01.420Z,87.20
2018-07-05T02:42:40.922Z,87.30
2018-07-05T02:45:20.490Z,87.80
2018-07-05T02:48:00.209Z,87.10
2018-07-05T02:50:39.709Z,87.20
2018-07-05T02:53:19.341Z,87.40
2018-07-05T02:55:58.821Z,87.30
2018-07-05T02:58:38.462Z,87.20
2018-07-05T03:01:18.090Z,87.20
2018-07-05T03:03:57.722Z,87.30
2018-07-05T03:06:37.265Z,87.40
2018-07-05T03:09:16.841Z,87.50
2018-07-05T03:11:56.504Z,87.60
2018-07-05T03:14:36.187Z,87.70
2018-07-05T03:17:15.797Z,87.80
2018-07-05T03:19:55.516Z,88.00
2018-07-05T03:22:35.146Z,88.00
2018-07-05T03:25:14.609Z,88.10
2018-07-05T03:27:54.281Z,88.20
2018-07-05T03:30:33.738Z,88.20
2018-07-05T03:33:13.303Z,88.20
2018-07-05T03:35:52.806Z,88.30
2018-07-05T03:38:32.383Z,88.30
2018-07-05T03:41:11.942Z,88.30
2018-07-05T03:43:51.671Z,88.30
2018-07-05T03:46:31.284Z,88.60
2018-07-05T03:51:44.657Z,88.80
2018-07-05T03:54:24.115Z,89.00
2018-07-05T03:57:03.934Z,89.00
2018-07-05T03:59:43.413Z,88.80
2018-07-05T04:02:23.008Z,88.70
2018-07-05T04:05:02.514Z,88.70
2018-07-05T04:07:42.106Z,88.80
2018-07-05T04:10:21.598Z,88.90
2018-07-05T04:13:01.006Z,89.00
2018-07-05T04:15:40.623Z,89.00
2018-07-05T04:18:20.349Z,88.90
2018-07-05T04:20:59.913Z,88.80
2018-07-05T04:23:39.534Z,88.60
2018-07-05T04:26:19.045Z,88.50
2018-07-05T04:31:32.134Z,88.40
2018-07-05T04:34:11.893Z,88.20
2018-07-05T04:36:51.485Z,88.00
2018-07-05T04:39:31.130Z,87.80
2018-07-05T04:42:10.694Z,87.50
2018-07-05T04:44:50.235Z,87.30
2018-07-05T04:47:29.820Z,87.10
2018-07-05T04:50:09.421Z,87.00
2018-07-05T04:52:49.922Z,86.80
2018-07-05T04:55:29.593Z,86.70
2018-07-05T04:58:09.222Z,86.50
2018-07-05T05:00:48.854Z,86.10
2018-07-05T05:03:28.395Z,85.50
2018-07-05T05:06:08.115Z,86.00
2018-07-05T05:08:47.807Z,85.60
2018-07-05T05:11:27.231Z,85.30
2018-07-05T05:14:06.826Z,85.10
2018-07-05T05:16:46.398Z,84.90
2018-07-05T05:19:26.170Z,84.60
2018-07-05T05:22:05.656Z,84.40
2018-07-05T05:24:45.130Z,84.30
2018-07-05T05:27:24.774Z,84.10
2018-07-05T05:30:04.546Z,83.90
2018-07-05T05:32:44.211Z,83.70
2018-07-05T05:35:23.762Z,83.50
2018-07-05T05:38:03.338Z,83.30
2018-07-05T05:40:42.962Z,83.00
2018-07-05T05:43:22.579Z,82.80
2018-07-05T05:46:02.182Z,82.80
2018-07-05T05:48:41.745Z,82.50
2018-07-05T05:51:21.370Z,82.00
2018-07-05T05:54:00.885Z,81.60
2018-07-05T05:56:40.434Z,81.60
2018-07-05T05:59:20.141Z,81.40
2018-07-05T06:01:59.615Z,81.10
2018-07-05T06:04:39.090Z,81.20
2018-07-05T06:07:18.690Z,81.20
2018-07-05T06:09:58.436Z,81.00
2018-07-05T06:12:37.946Z,80.90
2018-07-05T06:15:17.764Z,80.80
2018-07-05T06:17:57.401Z,80.80
2018-07-05T06:20:37.069Z,80.80
2018-07-05T06:25:50.110Z,80.20
2018-07-05T06:31:03.432Z,79.20
2018-07-05T06:33:42.946Z,78.90
2018-07-05T06:36:22.537Z,78.60
2018-07-05T06:39:02.158Z,78.30
2018-07-05T06:41:41.827Z,78.20
2018-07-05T06:44:21.467Z,77.80
2018-07-05T06:49:34.470Z,76.90
2018-07-05T06:52:14.054Z,76.70
2018-07-05T06:54:53.754Z,76.50
2018-07-05T06:57:33.498Z,76.20
2018-07-05T07:00:13.100Z,75.80
2018-07-05T07:02:52.927Z,75.30
2018-07-05T07:05:32.391Z,75.10
2018-07-05T07:08:12.013Z,74.60
2018-07-05T07:10:51.655Z,74.20
2018-07-05T07:13:31.110Z,74.10
2018-07-05T07:16:10.799Z,74.40
2018-07-05T07:18:51.402Z,73.60
2018-07-05T07:26:37.847Z,72.80
2018-07-05T07:29:17.346Z,72.80
2018-07-05T07:31:57.052Z,72.60
2018-07-05T07:34:36.493Z,72.30
2018-07-05T07:37:16.159Z,72.20
2018-07-05T07:39:55.814Z,71.70
2018-07-05T07:42:23.053Z,71.60
2018-07-05T07:44:50.375Z,71.80
2018-07-05T07:49:45.169Z,71.90
2018-07-05T07:52:12.431Z,71.80
2018-07-05T07:54:39.669Z,71.50
2018-07-05T07:57:06.899Z,71.70
2018-07-05T07:59:34.237Z,71.90
2018-07-05T08:02:01.460Z,72.40
2018-07-05T08:04:28.708Z,72.50
2018-07-05T08:06:55.991Z,72.50
2018-07-05T08:09:23.242Z,72.40
2018-07-05T08:11:50.478Z,72.40
2018-07-05T08:14:17.689Z,72.10
2018-07-05T08:16:45.063Z,72.00
2018-07-05T08:19:12.551Z,71.90
2018-07-05T08:21:39.802Z,72.00
2018-07-05T08:24:09.833Z,71.90
2018-07-05T08:26:37.084Z,72.10
2018-07-05T08:29:04.303Z,72.20
2018-07-05T08:31:31.639Z,72.30
2018-07-05T08:33:58.853Z,72.40
2018-07-05T08:36:26.101Z,72.30
2018-07-05T08:38:53.347Z,72.30
2018-07-05T08:41:20.578Z,72.60
2018-07-05T08:43:47.851Z,72.90
2018-07-05T08:46:15.111Z,73.00
2018-07-05T08:48:42.337Z,73.00
2018-07-05T08:51:09.545Z,73.10
2018-07-05T08:53:36.838Z,73.00
2018-07-05T08:56:04.097Z,73.00
2018-07-05T09:00:58.854Z,72.20
2018-07-05T09:03:26.058Z,72.00
2018-07-05T09:05:53.333Z,71.80
2018-07-05T09:08:20.680Z,71.90
2018-07-05T09:10:47.935Z,72.10
2018-07-05T09:13:15.191Z,72.10
2018-07-05T09:15:43.446Z,72.20
2018-07-05T09:18:10.756Z,72.20
2018-07-05T09:20:38.818Z,72.00
2018-07-05T09:23:06.418Z,71.90
2018-07-05T09:25:33.614Z,71.80
2018-07-05T09:28:00.946Z,72.00
2018-07-05T09:30:28.179Z,71.90
2018-07-05T09:32:55.430Z,71.90
2018-07-05T09:35:22.670Z,72.00
2018-07-05T09:37:49.890Z,71.90
2018-07-05T09:40:17.139Z,71.70
2018-07-05T09:42:44.349Z,71.60
2018-07-05T09:45:11.622Z,71.40
2018-07-05T09:47:38.847Z,71.40
2018-07-05T09:50:06.046Z,71.10
2018-07-05T09:52:33.296Z,70.90
2018-07-05T09:55:00.526Z,70.60
2018-07-05T09:57:27.842Z,70.70
2018-07-05T09:59:55.062Z,70.00
2018-07-05T10:02:22.286Z,69.80
2018-07-05T10:04:49.630Z,69.40
2018-07-05T10:07:16.894Z,69.20
2018-07-05T10:09:44.114Z,69.80
2018-07-05T10:12:11.350Z,69.00
2018-07-05T10:14:38.646Z,68.40
2018-07-05T10:17:05.897Z,67.80
2018-07-05T10:19:33.206Z,67.80
2018-07-05T10:22:00.766Z,67.80
2018-07-05T10:24:27.979Z,68.00
2018-07-05T10:26:55.241Z,68.10
2018-07-05T10:29:34.781Z,68.00
2018-07-05T10:32:14.381Z,67.60
2018-07-05T10:34:41.588Z,67.40
2018-07-05T10:37:08.805Z,67.50
2018-07-05T10:39:36.086Z,67.70
2018-07-05T10:42:15.820Z,68.00
2018-07-05T10:44:55.298Z,68.00
2018-07-05T10:47:34.964Z,68.00
2018-07-05T10:50:14.579Z,67.70
2018-07-05T10:52:54.258Z,67.70
2018-07-05T10:55:33.886Z,67.40
2018-07-05T10:58:13.614Z,67.50
2018-07-05T11:00:53.238Z,68.30
2018-07-05T11:03:32.969Z,67.60
2018-07-05T11:06:12.573Z,67.10
2018-07-05T11:08:52.153Z,67.10
2018-07-05T11:11:31.773Z,66.90
2018-07-05T11:14:11.434Z,67.40
2018-07-05T11:16:51.030Z,66.60
2018-07-05T11:19:30.698Z,66.70
2018-07-05T11:22:10.317Z,66.70
2018-07-05T11:24:49.699Z,66.60
2018-07-05T11:27:29.422Z,66.20
2018-07-05T11:32:42.559Z,66.50
2018-07-05T11:35:22.346Z,66.60
2018-07-05T11:38:02.966Z,66.70
2018-07-05T11:40:42.643Z,66.70
2018-07-05T11:43:22.110Z,66.90
2018-07-05T11:46:01.590Z,66.70
2018-07-05T11:48:41.341Z,67.30
2018-07-05T11:51:21.114Z,66.70
2018-07-05T11:54:00.854Z,66.70
2018-07-05T11:56:40.480Z,66.50
2018-07-05T11:59:19.974Z,66.40
2018-07-05T12:02:00.778Z,66.20
2018-07-05T12:04:40.368Z,65.90
2018-07-05T12:07:20.090Z,65.60
2018-07-05T12:09:59.775Z,65.60
2018-07-05T12:12:39.514Z,65.00
2018-07-05T12:15:19.139Z,65.30
2018-07-05T12:17:58.738Z,65.50
2018-07-05T12:20:38.448Z,65.20
2018-07-05T12:23:18.570Z,65.00
2018-07-05T12:25:58.053Z,64.80
2018-07-05T12:28:37.736Z,64.50
2018-07-05T12:31:17.507Z,64.40
2018-07-05T12:33:57.126Z,64.00
2018-07-05T12:36:36.759Z,63.90
2018-07-05T12:39:16.388Z,64.20
2018-07-05T12:44:29.833Z,64.40
2018-07-05T12:49:43.171Z,65.10
2018-07-05T12:54:56.466Z,65.40
2018-07-05T12:57:36.056Z,65.60
2018-07-05T13:00:15.550Z,66.10
2018-07-05T13:02:55.149Z,66.40
2018-07-05T13:05:35.537Z,66.10
2018-07-05T13:08:15.164Z,66.30
2018-07-05T13:10:54.797Z,66.20
2018-07-05T13:13:34.414Z,66.30
2018-07-05T13:16:13.900Z,66.40
2018-07-05T13:18:53.579Z,66.80
2018-07-05T13:21:32.954Z,66.80
2018-07-05T13:24:12.682Z,67.10
2018-07-05T13:26:52.473Z,67.20
2018-07-05T13:29:32.063Z,67.10
2018-07-05T13:32:11.624Z,67.10
2018-07-05T13:34:51.135Z,67.40
2018-07-05T13:37:30.710Z,67.50
2018-07-05T13:40:10.328Z,67.60
2018-07-05T13:42:49.974Z,67.60
2018-07-05T13:45:29.580Z,67.90
2018-07-05T13:48:09.131Z,68.20
2018-07-05T13:50:48.678Z,68.10
2018-07-05T13:53:28.266Z,68.00
2018-07-05T13:56:07.966Z,68.10
2018-07-05T13:58:47.534Z,68.20
2018-07-05T14:01:27.136Z,68.20
2018-07-05T14:04:06.674Z,68.30
2018-07-05T14:06:46.726Z,68.30
2018-07-05T14:09:26.201Z,68.00
2018-07-05T14:12:05.891Z,67.80
2018-07-05T14:14:45.367Z,67.60
2018-07-05T14:17:25.007Z,67.30
2018-07-05T14:20:04.580Z,67.20
2018-07-05T14:22:44.022Z,67.40
2018-07-05T14:25:23.710Z,67.50
2018-07-05T14:28:03.362Z,67.60
2018-07-05T14:30:42.953Z,67.70
2018-07-05T14:33:22.611Z,67.50
2018-07-05T14:36:02.332Z,67.10
2018-07-05T14:38:42.088Z,67.50
2018-07-05T14:41:21.549Z,66.40
2018-07-05T14:44:01.270Z,66.20
2018-07-05T14:46:40.892Z,66.30
2018-07-05T14:49:21.322Z,66.30
2018-07-05T14:52:01.218Z,66.30
2018-07-05T14:54:40.929Z,66.40
2018-07-05T14:57:21.169Z,66.50
2018-07-05T15:00:02.014Z,66.30
2018-07-05T15:02:41.643Z,66.20
2018-07-05T15:05:21.227Z,66.50
2018-07-05T15:08:00.775Z,66.80
2018-07-05T15:10:40.465Z,67.00
2018-07-05T15:13:20.069Z,66.90
2018-07-05T15:15:59.710Z,66.50
2018-07-05T15:18:39.317Z,66.30
2018-07-05T15:21:18.920Z,66.20
2018-07-05T15:23:58.590Z,66.50
2018-07-05T15:26:38.258Z,66.70
2018-07-05T15:29:17.905Z,66.40
2018-07-05T15:31:57.418Z,66.30
2018-07-05T15:34:37.006Z,66.00
2018-07-05T15:37:16.697Z,66.00
2018-07-05T15:39:56.339Z,66.40
2018-07-05T15:42:36.014Z,66.70
2018-07-05T15:45:15.687Z,67.10
2018-07-05T15:47:55.310Z,67.40
2018-07-05T15:50:34.759Z,67.00
2018-07-05T15:53:14.374Z,66.90
2018-07-05T15:55:54.055Z,67.00
2018-07-05T15:58:33.937Z,66.90
2018-07-05T16:01:13.470Z,66.60
2018-07-05T16:03:53.168Z,66.70
2018-07-05T16:06:32.802Z,66.80
2018-07-05T16:09:12.345Z,66.80
2018-07-05T16:11:51.839Z,66.70
2018-07-05T16:14:31.482Z,66.00
2018-07-05T16:17:10.986Z,65.90
2018-07-05T16:22:24.422Z,64.70
2018-07-05T16:25:04.057Z,64.30
2018-07-05T16:27:43.607Z,63.90
2018-07-05T16:30:23.190Z,63.60
2018-07-05T16:33:02.803Z,63.70
2018-07-05T16:38:16.131Z,64.10
2018-07-05T16:40:55.641Z,64.60
2018-07-05T16:43:35.207Z,64.70
2018-07-05T16:46:14.843Z,64.80
2018-07-05T16:48:54.290Z,64.90
2018-07-05T16:51:33.846Z,64.80
2018-07-05T16:54:13.473Z,64.60
2018-07-05T16:56:53.158Z,64.70
2018-07-05T16:59:32.762Z,64.30
2018-07-05T17:02:12.322Z,63.80
2018-07-05T17:04:51.862Z,63.60
2018-07-05T17:07:31.435Z,63.60
2018-07-05T17:10:11.042Z,63.30
2018-07-05T17:12:50.619Z,63.50
2018-07-05T17:15:30.045Z,63.50
2018-07-05T17:18:09.700Z,63.60
2018-07-05T17:20:49.299Z,63.70
2018-07-05T17:23:28.782Z,63.80
2018-07-05T17:26:08.370Z,63.60
2018-07-05T17:28:48.072Z,63.30
2018-07-05T17:31:27.645Z,63.20
2018-07-05T17:34:07.158Z,63.40
2018-07-05T17:36:46.860Z,63.70
2018-07-05T17:39:26.495Z,64.10
2018-07-05T17:42:06.086Z,64.60
2018-07-05T17:44:45.773Z,64.80
2018-07-05T17:47:25.269Z,65.10
2018-07-05T17:50:04.877Z,65.40
2018-07-05T17:52:44.497Z,66.00
2018-07-05T17:55:23.961Z,66.40
2018-07-05T18:00:37.040Z,67.30
2018-07-05T18:03:16.623Z,67.80
2018-07-05T18:05:56.057Z,68.40
2018-07-05T18:08:35.712Z,69.00
2018-07-05T18:11:15.325Z,69.50
2018-07-05T18:13:54.909Z,69.90
2018-07-05T18:16:34.481Z,70.40
2018-07-05T18:19:14.111Z,70.80
2018-07-05T18:21:53.566Z,70.90
2018-07-05T18:24:33.250Z,71.20
2018-07-05T18:27:12.870Z,71.60
2018-07-05T18:29:52.533Z,71.80
2018-07-05T18:32:32.129Z,71.90
2018-07-05T18:35:11.718Z,72.20
2018-07-05T18:40:24.629Z,72.60
2018-07-05T18:43:04.236Z,72.90
2018-07-05T18:45:43.831Z,73.00
2018-07-05T18:48:23.430Z,73.20
2018-07-05T18:51:02.981Z,73.30
2018-07-05T18:53:42.588Z,73.30
2018-07-05T18:56:22.208Z,73.40
2018-07-05T18:59:01.851Z,73.50
2018-07-05T19:01:41.342Z,73.60
2018-07-05T19:04:20.986Z,73.70
2018-07-05T19:07:00.951Z,73.80
2018-07-05T19:09:40.437Z,74.10
2018-07-05T19:12:20.073Z,74.30
2018-07-05T19:14:59.723Z,74.50
2018-07-05T19:17:39.365Z,74.70
2018-07-05T19:20:18.929Z,74.60
2018-07-05T19:22:58.592Z,75.00
2018-07-05T19:25:38.130Z,75.40
2018-07-05T19:28:17.811Z,75.70
2018-07-05T19:30:57.511Z,75.70
2018-07-05T19:33:36.997Z,76.10
2018-07-05T19:36:16.537Z,77.10
2018-07-05T19:38:56.017Z,76.50
2018-07-05T19:41:35.637Z,76.90
2018-07-05T19:44:15.269Z,77.00
2018-07-05T19:46:54.836Z,77.40
2018-07-05T19:49:34.406Z,77.50
2018-07-05T19:52:14.111Z,77.60
2018-07-05T19:57:27.306Z,78.40
2018-07-05T20:00:06.875Z,78.50
2018-07-05T20:02:46.518Z,78.70
2018-07-05T20:05:26.056Z,78.90
2018-07-05T20:10:39.308Z,79.00
2018-07-05T20:13:18.916Z,79.10
2018-07-05T20:15:58.405Z,79.20
2018-07-05T20:18:37.963Z,79.30
2018-07-05T20:21:17.360Z,79.40
2018-07-05T20:23:57.009Z,79.60
2018-07-05T20:26:36.566Z,79.80
2018-07-05T20:29:16.118Z,79.90
2018-07-05T20:31:55.661Z,80.20
2018-07-05T20:34:35.241Z,80.30
2018-07-05T20:37:14.729Z,80.30
2018-07-05T20:39:54.367Z,80.70
2018-07-05T20:42:34.015Z,80.70
2018-07-05T20:45:13.577Z,81.00
2018-07-05T20:47:53.197Z,81.20
2018-07-05T20:50:32.861Z,81.30
2018-07-05T20:53:12.376Z,81.60
2018-07-05T20:55:51.971Z,81.70
2018-07-05T20:58:31.602Z,81.80
2018-07-05T21:01:11.098Z,81.90
2018-07-05T21:03:50.583Z,82.10
2018-07-05T21:06:30.165Z,82.30
2018-07-05T21:09:09.977Z,82.40
2018-07-05T21:11:49.518Z,82.50
2018-07-05T21:14:29.126Z,82.80
2018-07-05T21:17:08.809Z,83.20
2018-07-05T21:19:48.559Z,83.50
2018-07-05T21:22:28.064Z,83.90
2018-07-05T21:25:07.640Z,84.10
2018-07-05T21:27:47.254Z,84.20
2018-07-05T21:30:26.880Z,84.40
2018-07-05T21:33:06.596Z,84.70
2018-07-05T21:35:46.178Z,84.80
2018-07-05T21:38:25.840Z,85.00
2018-07-05T21:41:05.666Z,85.30
2018-07-05T21:43:45.236Z,85.50
2018-07-05T21:46:25.801Z,85.70
2018-07-05T21:49:05.562Z,86.00
2018-07-05T21:51:45.253Z,86.10
2018-07-05T21:54:24.792Z,86.20
2018-07-05T21:57:04.261Z,86.20
2018-07-05T21:59:43.849Z,86.10
2018-07-05T22:02:23.409Z,86.10
2018-07-05T22:05:04.874Z,86.30
2018-07-05T22:07:44.394Z,86.50
2018-07-05T22:10:23.917Z,86.60
2018-07-05T22:13:03.406Z,86.60
2018-07-05T22:15:42.868Z,86.60
2018-07-05T22:18:27.810Z,86.60
2018-07-05T22:21:10.203Z,86.50
2018-07-05T22:23:55.223Z,86.30
2018-07-05T22:26:40.285Z,86.30
2018-07-05T22:29:25.252Z,86.40
2018-07-05T22:32:04.828Z,86.40
2018-07-05T22:34:44.577Z,86.40
2018-07-05T22:37:24.200Z,86.50
2018-07-05T22:40:03.926Z,86.50
2018-07-05T22:42:43.429Z,86.30
2018-07-05T22:45:23.321Z,86.50
2018-07-05T22:48:02.902Z,86.40
2018-07-05T22:50:42.405Z,86.60
2018-07-05T22:53:21.955Z,86.70
2018-07-05T22:56:01.642Z,86.60
2018-07-05T22:58:41.350Z,86.80
2018-07-05T23:01:20.838Z,86.70
2018-07-05T23:04:00.414Z,86.80
2018-07-05T23:06:40.026Z,86.80
2018-07-05T23:09:19.638Z,86.90
2018-07-05T23:11:59.206Z,86.90
2018-07-05T23:14:38.819Z,86.90
2018-07-05T23:17:18.337Z,86.80
2018-07-05T23:19:57.955Z,86.80
2018-07-05T23:22:37.661Z,86.70
2018-07-05T23:25:17.140Z,86.50
2018-07-05T23:27:56.867Z,86.30
2018-07-05T23:30:36.621Z,85.90
2018-07-05T23:33:16.309Z,85.80
2018-07-05T23:35:55.903Z,85.20
2018-07-05T23:38:35.559Z,84.80
2018-07-05T23:41:15.062Z,84.30
2018-07-05T23:43:54.722Z,84.10
2018-07-05T23:46:34.372Z,83.50
2018-07-05T23:49:13.966Z,83.20
2018-07-05T23:51:53.710Z,83.00
2018-07-05T23:54:33.138Z,82.80
2018-07-05T23:57:12.752Z,82.60
2018-07-05T23:59:52.319Z,82.20
